Time;durP1;ratioP1;P1;durP2;ratioP2;P2;SDS_P1;SDS_P2;PMS_P1;PMS_P2;Temp;Humidity;BMP_temperature;BMP_pressure;BME280_temperature;BME280_humidity;BME280_pressure;Samples;Min_cycle;Max_cycle;Signal;HPM_P1;HPM_P2
2023/04/06 00:02:12;;;;;;;10.40;6.57;;;4.00;47.60;;;-0.87;77.82;95675.28;4990633;28;20022;-53
2023/04/06 00:04:38;;;;;;;10.32;6.20;;;4.00;47.50;;;-0.90;78.28;95667.00;4990675;28;20025;-50
2023/04/06 00:07:04;;;;;;;9.93;6.53;;;4.00;47.50;;;-0.97;78.74;95672.19;4990982;28;20068;-50
2023/04/06 00:09:30;;;;;;;10.57;6.30;;;4.00;47.50;;;-0.94;79.21;95662.16;4991423;28;20037;-50
2023/04/06 00:11:57;;;;;;;10.68;5.65;;;4.00;47.60;;;-0.91;78.74;95670.59;4994775;28;20022;-48
2023/04/06 00:14:23;;;;;;;8.02;5.28;;;4.00;47.60;;;-0.91;77.89;95668.78;4993832;28;20469;-49
2023/04/06 00:16:49;;;;;;;9.25;5.03;;;4.00;47.70;;;-0.89;79.71;95672.03;4995163;28;20113;-48
2023/04/06 00:19:15;;;;;;;8.20;5.80;;;3.90;47.70;;;-0.88;79.81;95670.22;4993924;28;20472;-48
2023/04/06 00:21:41;;;;;;;10.23;5.97;;;4.00;47.80;;;-0.93;79.99;95660.34;4994922;28;20029;-48
2023/04/06 00:24:07;;;;;;;8.93;5.82;;;3.90;47.70;;;-0.95;79.46;95664.94;4994176;28;20030;-53
2023/04/06 00:26:32;;;;;;;8.90;5.78;;;3.90;47.80;;;-0.99;79.32;95663.72;4994314;28;20026;-51
2023/04/06 00:28:58;;;;;;;9.95;6.35;;;3.90;47.80;;;-1.01;79.88;95657.88;4994523;28;20029;-52
2023/04/06 00:31:24;;;;;;;12.23;6.55;;;3.80;47.80;;;-1.12;80.63;95661.03;4994117;28;20072;-52
2023/04/06 00:33:50;;;;;;;9.93;6.10;;;3.80;47.90;;;-1.17;81.47;95664.97;4994755;28;20025;-52
2023/04/06 00:36:17;;;;;;;8.80;5.82;;;3.80;48.00;;;-1.15;82.05;95661.41;4993622;28;20099;-52
2023/04/06 00:38:43;;;;;;;9.43;6.20;;;3.80;48.10;;;-1.19;82.61;95653.94;4994153;28;20018;-48
2023/04/06 00:41:09;;;;;;;8.93;5.50;;;3.80;48.20;;;-1.20;82.58;95660.13;4994296;28;20050;-49
2023/04/06 00:43:35;;;;;;;12.38;6.25;;;3.70;48.20;;;-1.24;82.48;95643.22;4992267;28;20026;-50
2023/04/06 00:46:01;;;;;;;11.77;6.90;;;3.70;48.30;;;-1.27;82.72;95653.25;4994749;28;20087;-48
2023/04/06 00:48:27;;;;;;;9.73;6.07;;;3.60;48.40;;;-1.34;82.88;95650.59;4993439;28;20034;-48
2023/04/06 00:50:53;;;;;;;10.88;6.90;;;3.60;48.50;;;-1.39;82.85;95647.72;4994415;28;20041;-48
2023/04/06 00:53:19;;;;;;;9.60;6.47;;;3.60;48.60;;;-1.43;83.35;95649.91;4994363;28;20026;-47
2023/04/06 00:55:45;;;;;;;10.82;6.82;;;3.50;48.70;;;-1.48;83.42;95649.66;4993151;28;20404;-47
2023/04/06 00:58:11;;;;;;;8.65;6.10;;;3.50;48.80;;;-1.55;83.55;95642.75;4993946;28;20028;-50
2023/04/06 01:00:37;;;;;;;9.13;6.47;;;3.50;48.90;;;-1.58;83.10;95640.50;4993267;28;20116;-49
2023/04/06 01:03:05;;;;;;;9.40;6.50;;;3.40;48.90;;;-1.58;83.48;95637.91;4994098;28;20020;-50
2023/04/06 01:05:39;;;;;;;11.48;6.55;;;3.40;49.00;;;-1.57;83.77;95635.09;4994078;28;20105;-47
2023/04/06 01:08:07;;;;;;;8.80;5.45;;;3.40;49.10;;;-1.58;84.25;95640.50;4993314;28;20113;-48
2023/04/06 01:10:33;;;;;;;10.18;5.68;;;3.40;49.80;;;-1.64;84.26;95635.03;4994141;28;20033;-47
2023/04/06 01:12:59;;;;;;;10.55;6.43;;;3.30;49.10;;;-1.65;83.24;95636.03;4991856;28;20018;-47
2023/04/06 01:15:26;;;;;;;10.48;5.97;;;3.30;49.20;;;-1.60;82.89;95627.63;4994015;28;20029;-46
2023/04/06 01:17:52;;;;;;;10.77;6.75;;;3.30;49.20;;;-1.60;82.59;95635.47;4993737;28;20017;-46
2023/04/06 01:20:18;;;;;;;9.18;6.35;;;3.30;49.30;;;-1.55;82.07;95627.88;4992713;28;20064;-48
2023/04/06 01:22:44;;;;;;;9.82;6.20;;;3.30;49.30;;;-1.62;81.45;95624.41;4993566;28;20450;-47
2023/04/06 01:25:11;;;;;;;9.18;5.97;;;3.30;49.30;;;-1.57;81.72;95629.06;4992810;28;20104;-49
2023/04/06 01:27:36;;;;;;;9.05;5.15;;;3.30;49.40;;;-1.59;81.74;95624.03;4993582;28;20037;-47
2023/04/06 01:30:03;;;;;;;8.48;5.90;;;3.30;49.40;;;-1.59;81.69;95624.03;4993621;28;20384;-46
2023/04/06 01:32:30;;;;;;;8.68;5.68;;;3.30;49.40;;;-1.60;82.17;95629.44;4992946;28;20346;-48
2023/04/06 01:34:55;;;;;;;10.82;6.28;;;3.30;49.40;;;-1.60;82.13;95627.63;4993620;28;20045;-51
2023/04/06 01:37:21;;;;;;;8.07;5.38;;;3.30;49.40;;;-1.59;81.66;95618.00;4992613;28;20052;-47
2023/04/06 01:39:47;;;;;;;11.15;6.45;;;3.30;49.50;;;-1.61;80.96;95620.78;4993000;28;20073;-49
2023/04/06 01:42:13;;;;;;;8.95;5.93;;;3.30;49.50;;;-1.57;81.40;95621.22;4992919;28;20109;-49
2023/04/06 01:44:39;;;;;;;8.65;5.47;;;3.30;49.50;;;-1.60;81.86;95611.16;4993637;28;20021;-48
2023/04/06 01:47:05;;;;;;;10.23;6.35;;;3.30;49.50;;;-1.61;81.74;95620.78;4993283;28;20052;-45
2023/04/06 01:49:31;;;;;;;10.73;7.18;;;3.30;49.60;;;-1.67;82.35;95617.13;4982918;28;20030;-46
2023/04/06 01:51:56;;;;;;;8.63;5.57;;;3.30;49.60;;;-1.69;82.41;95620.94;4973822;28;20029;-47
2023/04/06 01:54:22;;;;;;;10.10;5.78;;;3.20;49.60;;;-1.71;81.40;95617.69;4973908;28;20030;-49
2023/04/06 01:56:50;;;;;;;9.50;6.45;;;3.20;49.60;;;-1.67;81.98;95613.72;4992840;28;20033;-47
2023/04/06 01:59:16;;;;;;;10.25;6.28;;;3.20;49.70;;;-1.70;81.76;95620.09;4993039;28;20050;-46
2023/04/06 02:01:42;;;;;;;8.10;5.82;;;3.20;49.70;;;-1.76;81.85;95614.81;4992242;28;20086;-46
2023/04/06 02:04:08;;;;;;;10.07;5.90;;;3.20;49.70;;;-1.75;82.47;95614.66;4993107;28;20068;-46
2023/04/06 02:06:33;;;;;;;14.07;6.07;;;3.20;49.80;;;-1.77;82.30;95613.22;4991793;28;20024;-46
2023/04/06 02:08:59;;;;;;;9.45;6.22;;;3.10;49.70;;;-1.77;82.12;95613.22;4992691;28;20128;-49
2023/04/06 02:11:25;;;;;;;10.00;6.38;;;3.20;49.80;;;-1.89;82.98;95608.47;4992898;28;20018;-45
2023/04/06 02:13:51;;;;;;;10.35;6.18;;;3.10;49.80;;;-1.90;83.09;95616.50;4991768;28;20080;-47
2023/04/06 02:16:17;;;;;;;9.95;6.50;;;3.10;49.80;;;-1.94;83.43;95615.28;4992997;28;20026;-47
2023/04/06 02:18:42;;;;;;;10.13;6.13;;;3.00;49.90;;;-1.95;83.51;95614.44;4991660;28;20045;-46
2023/04/06 02:21:09;;;;;;;10.45;6.78;;;3.00;49.90;;;-1.99;83.57;95617.63;4992704;28;20516;-47
2023/04/06 02:23:34;;;;;;;10.18;6.22;;;3.00;50.00;;;-2.02;83.70;95612.78;4992423;28;20043;-47
2023/04/06 02:26:00;;;;;;;8.85;5.75;;;2.90;50.00;;;-2.01;83.77;95615.19;4991665;28;20033;-47
2023/04/06 02:28:26;;;;;;;8.95;6.18;;;2.90;50.10;;;-2.06;84.23;95614.16;4992552;28;20032;-46
2023/04/06 02:30:52;;;;;;;14.07;6.90;;;2.90;50.10;;;-2.11;84.26;95612.06;4991726;28;20097;-45
2023/04/06 02:33:18;;;;;;;13.25;6.22;;;2.90;50.20;;;-2.12;84.52;95616.50;4992119;28;20575;-48
2023/04/06 02:35:45;;;;;;;10.57;5.82;;;2.80;50.20;;;-2.17;84.44;95618.03;4992348;28;20037;-45
2023/04/06 02:38:11;;;;;;;9.23;5.68;;;2.80;50.30;;;-2.13;83.84;95625.31;4991181;28;20132;-47
2023/04/06 02:40:37;;;;;;;8.18;5.35;;;2.80;50.30;;;-2.11;83.56;95617.28;4992121;28;20128;-46
2023/04/06 02:43:03;;;;;;;8.93;5.35;;;2.80;50.40;;;-2.14;83.53;95620.28;4991716;28;20056;-48
2023/04/06 02:45:29;;;;;;;10.30;6.15;;;2.80;50.40;;;-2.17;83.91;95616.22;4991045;28;20034;-46
2023/04/06 02:47:55;;;;;;;8.45;5.47;;;2.80;50.40;;;-2.21;84.43;95609.75;4992266;28;20034;-46
2023/04/06 02:50:20;;;;;;;10.32;6.40;;;2.70;50.40;;;-2.21;84.17;95612.38;4991451;28;20032;-46
2023/04/06 02:52:46;;;;;;;8.65;6.03;;;2.70;50.50;;;-2.19;84.49;95607.78;4992047;28;20030;-48
2023/04/06 02:55:12;;;;;;;10.13;5.72;;;2.70;50.50;;;-2.19;84.82;95612.19;4991215;28;20025;-47
2023/04/06 02:57:38;;;;;;;9.55;6.32;;;2.70;50.60;;;-2.21;84.40;95609.75;4992224;28;20053;-46
2023/04/06 03:00:07;;;;;;;9.35;6.13;;;2.70;50.60;;;-2.24;84.71;95606.72;4992128;28;20039;-47
2023/04/06 03:02:32;;;;;;;10.55;6.07;;;2.70;50.60;;;-2.23;84.95;95601.28;4991140;28;20026;-48
2023/04/06 03:04:58;;;;;;;9.90;6.32;;;2.70;50.70;;;-2.24;84.79;95601.50;4991975;28;20022;-46
2023/04/06 03:07:24;;;;;;;11.38;6.25;;;2.70;50.70;;;-2.32;85.09;95597.19;4990971;28;20099;-49
2023/04/06 03:09:50;;;;;;;10.02;6.25;;;2.60;50.70;;;-2.33;85.17;95603.41;4992051;28;20072;-47
2023/04/06 03:12:16;;;;;;;12.35;6.53;;;2.60;50.80;;;-2.36;85.43;95601.16;4991373;28;20068;-47
2023/04/06 03:14:42;;;;;;;9.93;6.50;;;2.60;50.90;;;-2.34;85.58;95604.41;4990836;28;20170;-47
2023/04/06 03:17:08;;;;;;;10.25;6.90;;;2.60;50.90;;;-2.31;85.32;95603.22;4992068;28;20082;-46
2023/04/06 03:19:33;;;;;;;9.68;5.93;;;2.60;51.00;;;-2.37;85.63;95602.97;4990917;28;20033;-51
2023/04/06 03:21:59;;;;;;;12.95;6.10;;;2.60;51.00;;;-2.41;85.39;95593.91;4991820;28;20026;-47
2023/04/06 03:24:25;;;;;;;9.20;6.07;;;2.60;51.00;;;-2.41;85.88;95595.69;4991057;28;20382;-47
2023/04/06 03:26:51;;;;;;;11.13;6.10;;;2.50;51.00;;;-2.44;85.78;95596.06;4992127;28;20057;-50
2023/04/06 03:29:17;;;;;;;10.55;6.43;;;2.50;51.10;;;-2.50;86.68;95602.00;4990576;28;20041;-46
2023/04/06 03:31:43;;;;;;;11.60;6.57;;;2.50;51.10;;;-2.53;86.63;95600.56;4991287;28;20164;-47
2023/04/06 03:34:09;;;;;;;8.65;5.63;;;2.50;51.20;;;-2.52;86.79;95601.38;4991695;28;20029;-48
2023/04/06 03:36:36;;;;;;;11.70;6.63;;;2.40;51.10;;;-2.48;86.18;95602.63;4990897;28;20452;-49
2023/04/06 03:39:02;;;;;;;10.80;6.53;;;2.40;51.20;;;-2.54;86.47;95611.16;4991935;28;20049;-50
2023/04/06 03:41:27;;;;;;;9.55;5.85;;;2.40;51.30;;;-2.57;86.71;95612.34;4991640;28;20037;-47
2023/04/06 03:43:53;;;;;;;11.48;6.20;;;2.40;51.30;;;-2.60;86.35;95607.47;4990137;28;20120;-45
2023/04/06 03:46:19;;;;;;;10.05;5.88;;;2.40;51.40;;;-2.64;86.96;95604.44;4995560;28;20018;-45
2023/04/06 03:48:48;;;;;;;10.85;6.53;;;2.40;51.40;;;-2.68;87.07;95603.19;4992955;28;20912;-47
2023/04/06 03:51:14;;;;;;;10.60;6.90;;;2.40;51.50;;;-2.69;87.45;95613.81;4995528;28;20026;-47
2023/04/06 03:53:40;;;;;;;9.48;5.72;;;2.30;51.40;;;-2.73;87.69;95613.34;4995350;28;20032;-47
2023/04/06 03:56:06;;;;;;;10.27;5.90;;;2.30;51.50;;;-2.78;88.01;95614.91;4994450;28;20481;-48
2023/04/06 03:58:32;;;;;;;10.38;6.32;;;2.30;51.60;;;-2.83;88.24;95611.00;4995377;28;20021;-47
2023/04/06 04:00:58;;;;;;;11.05;6.10;;;2.20;51.60;;;-2.84;88.47;95619.84;4987379;28;20042;-51
2023/04/06 04:03:26;;;;;;;11.80;6.47;;;2.20;51.70;;;-2.86;88.81;95613.19;4985064;28;20018;-51
2023/04/06 04:05:52;;;;;;;11.45;7.07;;;2.20;51.70;;;-2.89;88.45;95616.13;4983428;28;20022;-48
2023/04/06 04:08:18;;;;;;;12.18;7.03;;;2.10;51.70;;;-2.95;89.32;95609.03;4993908;28;20026;-51
2023/04/06 04:10:44;;;;;;;11.75;6.22;;;2.10;51.80;;;-2.94;89.39;95608.06;4994853;28;20106;-51
2023/04/06 04:13:10;;;;;;;10.60;6.93;;;2.10;51.90;;;-2.96;88.87;95613.44;4993950;28;20021;-49
2023/04/06 04:15:36;;;;;;;9.95;6.63;;;2.10;52.00;;;-2.98;89.10;95609.41;4994956;28;20044;-51
2023/04/06 04:18:02;;;;;;;10.60;6.75;;;2.00;51.90;;;-3.05;89.41;95615.31;4994524;28;20037;-45
2023/04/06 04:20:28;;;;;;;13.90;7.40;;;2.00;52.00;;;-3.04;89.95;95611.75;4993628;28;20026;-46
2023/04/06 04:22:54;;;;;;;12.60;7.60;;;2.00;52.10;;;-3.06;89.79;95608.50;4994330;28;20017;-46
2023/04/06 04:25:20;;;;;;;9.30;6.68;;;2.00;52.20;;;-3.10;89.87;95607.25;4993494;28;20018;-46
2023/04/06 04:27:45;;;;;;;11.60;7.03;;;2.00;52.20;;;-3.08;90.25;95613.06;4994339;28;20026;-46
2023/04/06 04:30:12;;;;;;;10.77;6.50;;;2.00;52.30;;;-3.09;89.84;95614.06;4994407;28;20096;-47
2023/04/06 04:32:37;;;;;;;11.98;6.97;;;1.90;52.30;;;-3.08;90.56;95610.47;4993347;28;20017;-46
2023/04/06 04:35:04;;;;;;;14.45;6.95;;;1.90;52.30;;;-3.06;90.48;95615.50;4992147;28;20028;-49
2023/04/06 04:37:30;;;;;;;14.93;8.27;;;1.90;52.40;;;-3.03;90.10;95621.19;4983355;28;20109;-45
2023/04/06 04:39:56;;;;;;;11.98;7.15;;;1.90;52.50;;;-3.05;89.86;95620.53;4994135;28;20046;-47
2023/04/06 04:42:22;;;;;;;13.95;7.35;;;1.90;52.50;;;-3.07;90.15;95625.13;5008524;28;20029;-46
2023/04/06 04:44:48;;;;;;;10.75;6.28;;;1.90;52.50;;;-3.10;90.34;95622.88;4994192;28;20040;-47
2023/04/06 04:47:14;;;;;;;10.75;6.00;;;1.90;52.60;;;-3.07;90.20;95621.69;4994024;28;20492;-47
2023/04/06 04:49:40;;;;;;;11.50;6.90;;;1.90;52.60;;;-3.08;90.16;95625.31;4993353;28;20108;-47
2023/04/06 04:52:05;;;;;;;12.85;7.78;;;1.90;52.50;;;-3.10;90.02;95627.28;4994139;28;20464;-45
2023/04/06 04:54:31;;;;;;;11.52;6.72;;;1.90;52.50;;;-3.13;90.67;95628.44;4993268;28;20080;-45
2023/04/06 04:56:57;;;;;;;11.20;6.63;;;1.90;52.60;;;-3.10;90.47;95627.28;4993329;28;20114;-45
2023/04/06 04:59:23;;;;;;;12.63;7.40;;;1.90;52.60;;;-3.10;90.48;95637.72;4993823;28;20171;-46
2023/04/06 05:01:49;;;;;;;12.23;7.15;;;1.90;52.70;;;-3.09;90.68;95642.75;4989664;28;20113;-46
2023/04/06 05:04:15;;;;;;;12.00;6.65;;;1.90;52.70;;;-3.10;90.36;95629.91;4974727;28;20033;-47
2023/04/06 05:06:41;;;;;;;12.82;6.93;;;1.90;52.70;;;-3.11;91.47;95633.47;4976331;28;20026;-47
2023/04/06 05:09:07;;;;;;;13.32;7.20;;;1.90;52.80;;;-3.05;91.03;95640.59;4993823;28;20083;-48
2023/04/06 05:11:33;;;;;;;13.38;7.00;;;1.90;52.80;;;-3.04;90.72;95636.97;4993754;28;20385;-48
2023/04/06 05:13:59;;;;;;;10.27;6.82;;;2.00;52.90;;;-3.02;90.39;95628.00;4992802;28;20044;-46
2023/04/06 05:16:26;;;;;;;10.65;7.13;;;2.00;52.90;;;-2.97;90.43;95637.91;4993407;28;20469;-47
2023/04/06 05:18:52;;;;;;;11.85;6.65;;;2.00;52.90;;;-2.93;90.80;95640.97;4992996;28;20140;-45
2023/04/06 05:21:19;;;;;;;11.63;6.65;;;2.10;52.90;;;-2.84;90.48;95651.13;4993601;28;20022;-45
2023/04/06 05:23:45;;;;;;;10.63;6.47;;;2.10;53.00;;;-2.81;90.46;95647.34;4983381;28;20029;-46
2023/04/06 05:26:11;;;;;;;11.88;6.95;;;2.20;53.00;;;-2.76;90.39;95646.78;4983895;28;20021;-49
2023/04/06 05:28:37;;;;;;;11.57;7.10;;;2.30;53.10;;;-2.67;90.13;95648.31;4993279;28;20017;-46
2023/04/06 05:31:03;;;;;;;9.57;6.30;;;2.40;53.10;;;-2.58;90.18;95655.88;4992539;28;20432;-49
2023/04/06 05:33:29;;;;;;;11.77;7.05;;;2.40;53.10;;;-2.45;89.70;95662.25;4992179;28;20075;-51
2023/04/06 05:35:55;;;;;;;10.43;6.53;;;2.60;53.20;;;-2.36;89.58;95661.16;4993390;28;20052;-45
2023/04/06 05:38:21;;;;;;;11.23;7.18;;;2.70;53.10;;;-2.33;89.23;95660.81;4992723;28;20068;-47
2023/04/06 05:40:47;;;;;;;11.30;6.60;;;2.70;53.00;;;-2.30;89.54;95667.47;4993131;28;20507;-47
2023/04/06 05:43:13;;;;;;;12.20;7.15;;;2.80;53.00;;;-2.28;89.43;95658.47;4992244;28;20017;-46
2023/04/06 05:45:38;;;;;;;14.43;8.05;;;2.90;53.00;;;-2.19;89.17;95667.00;4992957;28;20044;-48
2023/04/06 05:48:05;;;;;;;11.55;6.93;;;3.00;53.00;;;-2.11;88.75;95672.91;4992938;28;20025;-46
2023/04/06 05:50:30;;;;;;;10.73;7.18;;;3.10;53.00;;;-1.96;88.56;95674.69;4992286;28;20030;-48
2023/04/06 05:52:56;;;;;;;11.75;7.00;;;3.20;53.00;;;-1.81;88.19;95672.06;4992875;28;20476;-47
2023/04/06 05:55:22;;;;;;;13.77;7.15;;;3.40;52.90;;;-1.67;87.33;95666.75;4991649;28;20025;-47
2023/04/06 05:57:48;;;;;;;11.95;6.93;;;3.70;53.00;;;-1.37;86.76;95671.88;4992456;28;20553;-46
2023/04/06 06:00:14;;;;;;;8.75;6.28;;;4.00;53.00;;;-1.07;85.96;95671.69;4992355;28;20032;-48
2023/04/06 06:02:42;;;;;;;9.48;6.32;;;4.30;52.90;;;-0.79;85.66;95675.13;4992030;28;20032;-47
2023/04/06 06:05:10;;;;;;;9.35;6.10;;;4.60;52.80;;;-0.47;84.43;95668.47;4992721;28;20080;-47
2023/04/06 06:07:36;;;;;;;8.68;5.65;;;4.90;52.70;;;-0.14;83.28;95678.28;4990511;28;20063;-47
2023/04/06 06:10:02;;;;;;;7.93;5.72;;;5.30;52.50;;;0.21;82.63;95672.97;4991193;28;20033;-48
2023/04/06 06:12:28;;;;;;;9.23;5.28;;;5.70;52.30;;;0.52;79.81;95677.69;4989935;28;20087;-52
2023/04/06 06:14:55;;;;;;;8.27;5.60;;;6.10;52.10;;;0.91;76.63;95674.31;4992243;28;20464;-47
2023/04/06 06:17:21;;;;;;;7.78;5.60;;;6.50;51.70;;;1.32;76.36;95680.34;4992384;28;20086;-52
2023/04/06 06:19:47;;;;;;;9.05;5.50;;;6.90;51.40;;;1.70;74.01;95679.66;4991370;28;20037;-49
2023/04/06 06:22:13;;;;;;;7.20;5.38;;;7.30;51.00;;;2.08;71.77;95682.34;4991261;28;20033;-53
2023/04/06 06:24:39;;;;;;;8.73;5.70;;;7.70;50.60;;;2.31;67.24;95687.09;4990222;28;20534;-47
2023/04/06 06:27:05;;;;;;;8.02;5.13;;;8.10;50.20;;;2.53;66.04;95679.69;4991993;28;20053;-48
2023/04/06 06:29:31;;;;;;;8.07;5.00;;;8.50;49.60;;;2.75;65.12;95690.69;4992098;28;20104;-48
2023/04/06 06:31:57;;;;;;;9.70;5.38;;;8.90;49.10;;;3.01;63.70;95687.88;4991350;28;20123;-47
2023/04/06 06:34:22;;;;;;;8.48;5.75;;;9.20;48.50;;;3.27;62.17;95683.41;4992221;28;20033;-47
2023/04/06 06:36:48;;;;;;;8.25;5.65;;;9.70;48.10;;;3.53;62.31;95678.91;4991046;28;20392;-48
2023/04/06 06:39:14;;;;;;;7.00;5.20;;;10.00;47.60;;;3.84;60.07;95686.69;4992184;28;20393;-50
2023/04/06 06:41:40;;;;;;;7.95;5.45;;;10.40;47.10;;;4.05;60.27;95687.28;4991904;28;20068;-51
2023/04/06 06:44:06;;;;;;;8.45;6.07;;;10.70;46.60;;;4.21;58.68;95685.88;4990881;28;20029;-48
2023/04/06 06:46:32;;;;;;;8.90;5.30;;;11.10;46.10;;;4.32;58.23;95691.19;4992087;28;20477;-51
2023/04/06 06:48:59;;;;;;;10.18;5.97;;;11.40;45.60;;;4.55;57.71;95692.34;4986231;28;20037;-50
2023/04/06 06:51:25;;;;;;;7.78;5.53;;;11.70;45.70;;;4.69;57.67;95685.03;4972576;28;20026;-49
2023/04/06 06:53:51;;;;;;;7.20;5.65;;;11.90;44.60;;;4.99;57.20;95695.59;4972385;28;20018;-53
2023/04/06 06:56:16;;;;;;;8.30;5.97;;;12.10;44.20;;;5.17;56.20;95703.44;4987428;28;20018;-53
2023/04/06 06:58:42;;;;;;;8.32;6.05;;;12.40;43.80;;;5.32;55.49;95698.50;4991557;28;20091;-52
2023/04/06 07:01:08;;;;;;;9.48;6.00;;;12.70;43.40;;;5.53;55.06;95693.69;4991091;28;20048;-51
2023/04/06 07:03:34;;;;;;;8.02;6.00;;;12.90;43.00;;;5.77;53.21;95694.50;4991980;28;20030;-54
2023/04/06 07:06:00;;;;;;;9.38;5.68;;;13.10;42.60;;;5.97;51.57;95686.22;4992053;28;20056;-49
2023/04/06 07:08:26;;;;;;;8.45;6.28;;;13.30;42.00;;;6.19;51.42;95696.97;4990948;28;20538;-54
2023/04/06 07:10:55;;;;;;;7.95;6.13;;;13.50;41.50;;;6.32;50.80;95696.72;4991389;28;20029;-52
2023/04/06 07:13:23;;;;;;;11.63;5.80;;;13.70;41.20;;;6.33;50.56;95700.16;4990748;28;20030;-49
2023/04/06 07:15:50;;;;;;;7.38;6.07;;;13.90;40.80;;;6.61;49.96;95702.84;4991859;28;20018;-53
2023/04/06 07:18:18;;;;;;;7.68;5.75;;;14.10;41.00;;;6.94;49.33;95694.16;4991671;28;20389;-51
2023/04/06 07:20:44;;;;;;;7.10;5.50;;;14.30;40.00;;;7.25;48.17;95701.81;4993309;28;20030;-50
2023/04/06 07:23:10;;;;;;;7.55;5.50;;;14.60;39.70;;;7.44;47.11;95702.38;4994476;28;20403;-51
2023/04/06 07:25:37;;;;;;;7.05;6.00;;;14.80;39.20;;;7.63;46.27;95698.44;4994277;28;20032;-55
2023/04/06 07:28:04;;;;;;;9.10;5.18;;;15.00;38.80;;;7.70;45.20;95700.91;4995614;28;20587;-52
2023/04/06 07:30:31;;;;;;;9.05;5.25;;;15.20;38.20;;;7.92;46.07;95699.09;4994585;28;20065;-52
2023/04/06 07:32:57;;;;;;;7.45;5.40;;;15.40;37.80;;;8.21;44.88;95696.28;4995430;28;20029;-52
2023/04/06 07:35:27;;;;;;;7.43;5.40;;;15.60;37.50;;;8.29;44.16;95694.03;4995593;28;20024;-54
2023/04/06 07:37:54;;;;;;;6.22;5.25;;;15.80;36.90;;;8.55;43.45;95697.81;4994196;28;20034;-52
2023/04/06 07:40:21;;;;;;;7.93;4.93;;;16.00;36.50;;;8.82;43.69;95694.38;4995048;28;20069;-55
2023/04/06 07:42:46;;;;;;;6.55;5.20;;;16.10;36.20;;;8.88;42.88;95690.72;4994248;28;20018;-51
2023/04/06 07:45:15;;;;;;;8.77;5.43;;;16.30;35.90;;;9.22;41.65;95695.81;4995334;28;20480;-56
2023/04/06 07:47:42;;;;;;;8.88;5.22;;;16.50;35.40;;;9.68;42.72;95701.47;4995376;28;20107;-51
2023/04/06 07:50:09;;;;;;;7.57;5.35;;;16.70;35.40;;;10.01;41.72;95694.25;4993171;28;20049;-51
2023/04/06 07:52:35;;;;;;;8.10;5.30;;;17.00;35.10;;;10.29;39.91;95698.41;4994903;28;20104;-52
2023/04/06 07:55:01;;;;;;;6.50;5.25;;;17.30;34.50;;;10.33;39.27;95705.59;4993984;28;20603;-50
2023/04/06 07:57:27;;;;;;;7.70;5.57;;;17.50;34.10;;;10.47;39.31;95707.81;4995016;28;20420;-52
2023/04/06 07:59:53;;;;;;;8.70;5.82;;;17.70;33.70;;;10.63;38.74;95696.16;4995128;28;20033;-51
2023/04/06 08:02:19;;;;;;;7.07;5.55;;;17.90;33.30;;;10.90;37.52;95701.25;4992863;28;20022;-51
2023/04/06 08:04:45;;;;;;;5.68;5.07;;;18.10;32.80;;;10.87;38.24;95699.13;4994960;28;20488;-53
2023/04/06 08:07:12;;;;;;;6.97;5.28;;;18.20;32.30;;;11.14;37.92;95698.13;4993647;28;20033;-50
2023/04/06 08:09:38;;;;;;;8.32;5.50;;;18.40;32.10;;;11.35;36.78;95699.75;4993420;28;20026;-53
2023/04/06 08:12:04;;;;;;;7.40;5.68;;;18.60;31.80;;;11.46;36.98;95704.00;4995211;28;20024;-51
2023/04/06 08:14:30;;;;;;;8.90;5.80;;;18.80;31.40;;;11.45;37.18;95701.59;4993649;28;20068;-53
2023/04/06 08:16:55;;;;;;;8.02;5.47;;;19.00;31.10;;;11.63;37.09;95700.28;4994929;28;20049;-50
2023/04/06 08:19:22;;;;;;;8.00;5.63;;;19.20;30.70;;;11.78;36.46;95690.41;4993666;28;20025;-51
2023/04/06 08:21:47;;;;;;;9.02;6.05;;;19.40;30.40;;;11.94;35.40;95695.72;4984244;28;20018;-51
2023/04/06 08:24:15;;;;;;;8.13;5.93;;;19.50;29.90;;;12.19;35.36;95690.34;4973531;28;20394;-52
2023/04/06 08:26:41;;;;;;;6.55;5.72;;;19.60;29.70;;;12.38;34.97;95690.53;4965684;28;20021;-57
2023/04/06 08:29:07;;;;;;;7.30;6.35;;;19.70;29.50;;;12.57;35.13;95685.38;4954566;28;20064;-54
2023/04/06 08:31:36;;;;;;;8.48;6.22;;;19.90;29.40;;;12.84;35.46;95686.84;4973739;28;20022;-55
2023/04/06 08:34:07;;;;;;;9.63;6.80;;;20.00;29.20;;;12.83;34.45;95687.94;4973035;28;20025;-55
2023/04/06 08:36:34;;;;;;;9.32;6.60;;;20.20;29.00;;;12.95;35.20;95696.41;4975681;28;20046;-52
2023/04/06 08:39:01;;;;;;;7.82;6.05;;;20.40;28.80;;;12.92;33.33;95691.63;4994070;28;20021;-51
2023/04/06 08:41:28;;;;;;;8.07;6.72;;;20.40;28.40;;;12.91;33.33;95695.34;4994221;28;20038;-55
2023/04/06 08:44:01;;;;;;;6.93;6.18;;;20.50;28.10;;;12.85;34.12;95701.78;4993141;28;20109;-50
2023/04/06 08:46:30;;;;;;;8.65;6.47;;;20.60;27.80;;;12.86;33.97;95692.72;4994369;28;20034;-54
2023/04/06 08:49:02;;;;;;;7.63;5.80;;;20.60;27.60;;;13.37;33.05;95701.22;4992742;28;20013;-52
2023/04/06 08:51:30;;;;;;;10.90;6.82;;;20.60;27.50;;;13.53;33.09;95701.13;4994229;28;20037;-51
2023/04/06 08:54:00;;;;;;;8.52;6.70;;;20.80;27.50;;;13.29;33.22;95695.69;4994171;28;20386;-56
2023/04/06 08:56:28;;;;;;;8.80;6.70;;;20.80;27.20;;;13.55;33.42;95691.72;4993002;28;20036;-52
2023/04/06 08:58:56;;;;;;;7.40;6.45;;;20.90;27.20;;;13.30;33.46;95691.94;4993905;28;20021;-50
2023/04/06 09:01:27;;;;;;;9.10;6.35;;;21.00;27.10;;;13.51;33.37;95695.25;4985453;28;20100;-53
2023/04/06 09:04:02;;;;;;;9.50;6.97;;;21.20;26.90;;;13.53;33.88;95691.22;4976668;28;20022;-53
2023/04/06 09:06:28;;;;;;;8.10;6.20;;;21.30;26.80;;;13.69;33.11;95697.22;4975037;28;20022;-55
2023/04/06 09:08:54;;;;;;;6.88;6.03;;;21.40;26.70;;;13.87;33.95;95691.19;4973748;28;20036;-52
2023/04/06 09:11:21;;;;;;;12.30;6.82;;;21.50;26.70;;;14.30;33.09;95685.13;4978907;28;20507;-51
2023/04/06 09:13:54;;;;;;;8.88;6.68;;;21.70;26.70;;;14.46;31.73;95693.78;4976262;28;20484;-54
2023/04/06 09:16:21;;;;;;;8.27;6.82;;;21.90;26.40;;;14.61;31.55;95690.97;4979159;28;20025;-53
2023/04/06 09:18:49;;;;;;;9.00;6.55;;;22.10;26.30;;;14.79;32.00;95682.16;4974474;28;20022;-53
2023/04/06 09:21:19;;;;;;;7.72;6.45;;;22.20;26.10;;;15.00;31.49;95679.16;4975056;28;20064;-52
2023/04/06 09:23:45;;;;;;;10.48;6.97;;;22.40;25.90;;;15.19;30.52;95685.31;4973339;28;20037;-53
2023/04/06 09:26:16;;;;;;;8.23;7.00;;;22.60;25.80;;;15.18;30.04;95682.94;4972511;28;20425;-57
2023/04/06 09:28:59;;;;;;;7.50;6.22;;;22.70;25.30;;;15.03;29.87;95684.75;4977718;28;20034;-54
2023/04/06 09:31:34;;;;;;;14.07;6.70;;;22.80;25.10;;;14.87;30.44;95680.69;4983923;28;20044;-56
2023/04/06 09:34:01;;;;;;;9.02;6.32;;;23.00;25.00;;;15.18;29.81;95681.06;4993287;28;20030;-52
2023/04/06 09:36:40;;;;;;;9.52;7.05;;;23.10;25.00;;;15.46;28.78;95673.91;4991509;28;20108;-55
2023/04/06 09:39:06;;;;;;;11.13;7.55;;;23.20;24.60;;;15.06;30.07;95674.53;4993076;28;20037;-53
2023/04/06 09:41:36;;;;;;;9.65;7.03;;;23.30;24.50;;;14.53;29.80;95676.28;4992164;28;20570;-52
2023/04/06 09:44:13;;;;;;;10.88;7.18;;;23.20;23.70;;;14.93;30.17;95671.50;4992427;28;20539;-53
2023/04/06 09:46:45;;;;;;;11.73;7.13;;;23.20;23.70;;;15.62;30.22;95676.34;4992042;28;20125;-50
2023/04/06 09:49:13;;;;;;;11.73;7.32;;;23.20;23.90;;;15.95;29.07;95677.16;4992286;28;20532;-50
2023/04/06 09:52:08;;;;;;;8.45;7.32;;;23.30;24.10;;;15.66;28.82;95663.94;4992864;28;20076;-51
2023/04/06 09:54:36;;;;;;;10.05;7.30;;;23.50;24.00;;;15.66;29.43;95667.41;4990858;28;20063;-51
2023/04/06 09:57:22;;;;;;;8.82;7.57;;;23.70;23.90;;;15.92;29.55;95669.72;4991812;28;20049;-52
2023/04/06 10:00:07;;;;;;;8.05;6.82;;;24.00;23.70;;;16.07;28.60;95666.72;4976231;28;20414;-53
2023/04/06 10:02:39;;;;;;;6.88;5.95;;;24.20;23.60;;;16.14;26.80;95663.66;4990712;28;20500;-52
2023/04/06 10:05:27;;;;;;;7.07;5.88;;;24.40;23.30;;;16.28;27.48;95656.38;4992584;28;20393;-51
2023/04/06 10:08:00;;;;;;;8.15;6.25;;;24.60;23.00;;;16.16;28.06;95661.47;4991893;28;20708;-51
2023/04/06 10:10:28;;;;;;;7.13;5.80;;;24.70;22.80;;;16.66;26.28;95664.22;4963510;28;20030;-55
2023/04/06 10:12:56;;;;;;;8.93;6.32;;;24.80;22.60;;;16.86;27.14;95661.16;4976414;28;20024;-55
2023/04/06 10:15:22;;;;;;;9.25;5.60;;;24.90;22.50;;;16.72;26.29;95665.72;4991750;28;20384;-55
2023/04/06 10:17:49;;;;;;;6.28;5.57;;;25.00;22.30;;;16.36;26.28;95668.34;4992583;28;20036;-51
2023/04/06 10:20:38;;;;;;;7.70;6.35;;;25.00;21.80;;;16.61;25.42;95667.03;4976562;28;20560;-56
2023/04/06 10:23:26;;;;;;;7.28;6.18;;;25.00;21.70;;;16.78;25.57;95653.00;4972713;28;20033;-52